createdAt,value
2019-01-22T00:00:44.072Z,101534.67
2019-01-22T00:03:11.148Z,101530.66
2019-01-22T00:05:38.510Z,101524.93
2019-01-22T00:08:05.567Z,101523.08
2019-01-22T00:10:34.042Z,101532.59
2019-01-22T00:13:01.251Z,101520.66
2019-01-22T00:15:29.315Z,101519.20
2019-01-22T00:17:56.395Z,101522.08
2019-01-22T00:20:23.606Z,101519.37
2019-01-22T00:22:50.662Z,101523.41
2019-01-22T00:25:19.838Z,101525.63
2019-01-22T00:27:47.101Z,101519.03
2019-01-22T00:30:15.718Z,101514.83
2019-01-22T00:32:43.026Z,101512.37
2019-01-22T00:35:10.452Z,101518.64
2019-01-22T00:37:37.499Z,101512.45
2019-01-22T00:40:05.863Z,101507.72
2019-01-22T00:42:37.427Z,101508.05
2019-01-22T00:45:05.090Z,101513.22
2019-01-22T00:47:32.517Z,101509.55
2019-01-22T00:49:59.618Z,101513.59
2019-01-22T00:52:26.966Z,101507.47
2019-01-22T00:54:54.014Z,101506.44
2019-01-22T00:57:21.769Z,101503.80
2019-01-22T00:59:49.016Z,101498.77
2019-01-22T01:02:16.114Z,101493.05
2019-01-22T01:04:44.230Z,101500.30
2019-01-22T01:07:11.297Z,101497.02
2019-01-22T01:09:39.439Z,101494.04
2019-01-22T01:12:06.822Z,101485.48
2019-01-22T01:14:34.122Z,101487.15
2019-01-22T01:17:01.572Z,101486.31
2019-01-22T01:19:28.673Z,101482.23
2019-01-22T01:21:55.745Z,101485.34
2019-01-22T01:24:23.209Z,101480.74
2019-01-22T01:26:50.301Z,101481.09
2019-01-22T01:29:17.376Z,101480.30
2019-01-22T01:31:44.751Z,101471.98
2019-01-22T01:34:12.936Z,101469.83
2019-01-22T01:36:41.427Z,101473.39
2019-01-22T01:39:08.509Z,101463.58
2019-01-22T01:41:35.625Z,101464.72
2019-01-22T01:44:02.870Z,101457.37
2019-01-22T01:46:30.464Z,101457.37
2019-01-22T01:48:57.510Z,101457.66
2019-01-22T01:51:24.570Z,101449.88
2019-01-22T01:53:51.620Z,101447.13
2019-01-22T01:56:18.660Z,101438.48
2019-01-22T01:58:45.739Z,101438.85
2019-01-22T02:01:14.860Z,101431.48
2019-01-22T02:03:42.288Z,101435.06
2019-01-22T02:06:09.380Z,101430.41
2019-01-22T02:08:36.567Z,101425.69
2019-01-22T02:11:03.885Z,101431.59
2019-01-22T02:13:36.607Z,101422.07
2019-01-22T02:16:50.497Z,101418.48
2019-01-22T02:19:37.682Z,101412.47
2019-01-22T02:23:14.201Z,101403.17
2019-01-22T02:26:16.019Z,101397.28
2019-01-22T02:29:23.784Z,101387.86
2019-01-22T02:32:44.156Z,101383.92
2019-01-22T02:35:27.349Z,101375.70
2019-01-22T02:38:45.399Z,101372.75
2019-01-22T02:41:33.244Z,101372.09
2019-01-22T02:44:45.722Z,101377.14
2019-01-22T02:47:42.783Z,101368.70
2019-01-22T02:50:48.632Z,101359.16
2019-01-22T02:53:39.435Z,101356.19
2019-01-22T02:56:56.149Z,101348.17
2019-01-22T02:59:56.370Z,101352.47
2019-01-22T03:03:00.381Z,101347.48
2019-01-22T03:05:58.457Z,101337.91
2019-01-22T03:08:59.908Z,101334.39
2019-01-22T03:11:53.146Z,101332.87
2019-01-22T03:15:04.285Z,101330.08
2019-01-22T03:18:04.478Z,101319.63
2019-01-22T03:20:56.195Z,101319.09
2019-01-22T03:23:56.938Z,101313.31
2019-01-22T03:27:13.346Z,101320.80
2019-01-22T03:30:04.666Z,101316.72
2019-01-22T03:32:46.767Z,101312.51
2019-01-22T03:35:48.397Z,101311.50
2019-01-22T03:38:45.880Z,101302.80
2019-01-22T03:41:43.646Z,101306.23
2019-01-22T03:44:47.558Z,101303.24
2019-01-22T03:48:05.169Z,101297.55
2019-01-22T03:51:23.549Z,101293.88
2019-01-22T03:54:22.529Z,101284.64
2019-01-22T03:57:29.901Z,101285.31
2019-01-22T03:59:57.589Z,101281.87
2019-01-22T04:02:27.526Z,101283.73
2019-01-22T04:04:54.621Z,101284.58
2019-01-22T04:07:22.216Z,101282.55
2019-01-22T04:10:05.544Z,101280.13
2019-01-22T04:12:32.914Z,101282.73
2019-01-22T04:14:59.975Z,101285.94
2019-01-22T04:17:27.365Z,101282.19
2019-01-22T04:19:55.372Z,101284.73
2019-01-22T04:22:34.090Z,101274.01
2019-01-22T04:25:11.719Z,101271.42
2019-01-22T04:28:34.474Z,101264.68
2019-01-22T04:31:31.482Z,101260.86
2019-01-22T04:34:31.893Z,101262.69
2019-01-22T04:37:56.105Z,101264.19
2019-01-22T04:41:04.414Z,101252.67
2019-01-22T04:44:07.213Z,101262.45
2019-01-22T04:47:00.669Z,101256.83
2019-01-22T04:50:01.308Z,101259.64
2019-01-22T04:53:14.663Z,101253.72
2019-01-22T04:56:19.063Z,101250.77
2019-01-22T04:59:37.135Z,101247.95
2019-01-22T05:02:58.834Z,101246.70
2019-01-22T05:06:05.414Z,101247.55
2019-01-22T05:09:26.726Z,101248.33
2019-01-22T05:12:31.564Z,101257.52
2019-01-22T05:15:41.331Z,101252.95
2019-01-22T05:18:32.729Z,101247.28
2019-01-22T05:21:42.441Z,101248.57
2019-01-22T05:24:46.594Z,101238.61
2019-01-22T05:27:55.625Z,101244.55
2019-01-22T05:30:49.810Z,101238.91
2019-01-22T05:33:54.569Z,101244.98
2019-01-22T05:37:09.716Z,101240.57
2019-01-22T05:40:03.611Z,101238.76
2019-01-22T05:42:51.271Z,101233.45
2019-01-22T05:46:06.255Z,101234.63
2019-01-22T05:49:06.759Z,101235.48
2019-01-22T05:51:58.550Z,101231.47
2019-01-22T05:55:03.402Z,101231.13
2019-01-22T05:58:13.135Z,101228.80
2019-01-22T06:01:25.976Z,101229.09
2019-01-22T06:04:34.779Z,101218.16
2019-01-22T06:07:30.384Z,101216.20
2019-01-22T06:10:15.555Z,101227.34
2019-01-22T06:13:18.632Z,101221.50
2019-01-22T06:16:23.357Z,101214.41
2019-01-22T06:19:26.472Z,101207.83
2019-01-22T06:22:32.851Z,101206.99
2019-01-22T06:25:41.779Z,101201.28
2019-01-22T06:28:37.183Z,101198.94
2019-01-22T06:31:43.866Z,101191.32
2019-01-22T06:34:49.530Z,101190.66
2019-01-22T06:38:08.710Z,101181.98
2019-01-22T06:41:09.052Z,101174.70
2019-01-22T06:44:12.214Z,101162.94
2019-01-22T06:46:53.007Z,101164.06
2019-01-22T06:50:00.783Z,101168.60
2019-01-22T06:52:53.522Z,101172.51
2019-01-22T06:55:55.713Z,101165.88
2019-01-22T06:59:26.954Z,101164.16
2019-01-22T07:02:18.061Z,101166.55
2019-01-22T07:04:52.177Z,101162.77
2019-01-22T07:07:57.319Z,101167.27
2019-01-22T07:11:04.407Z,101158.78
2019-01-22T07:14:08.310Z,101154.64
2019-01-22T07:16:53.591Z,101155.69
2019-01-22T07:20:07.802Z,101153.79
2019-01-22T07:23:03.355Z,101155.93
2019-01-22T07:26:14.131Z,101148.31
2019-01-22T07:29:26.430Z,101144.40
2019-01-22T07:32:05.983Z,101146.05
2019-01-22T07:35:01.491Z,101144.78
2019-01-22T07:37:52.989Z,101136.69
2019-01-22T07:40:57.789Z,101138.36
2019-01-22T07:43:51.082Z,101136.97
2019-01-22T07:46:55.147Z,101133.72
2019-01-22T07:50:19.588Z,101131.70
2019-01-22T07:53:52.746Z,101127.53
2019-01-22T07:56:54.786Z,101124.75
2019-01-22T07:59:48.249Z,101120.16
2019-01-22T08:02:43.394Z,101119.81
2019-01-22T08:05:36.723Z,101115.70
2019-01-22T08:08:38.121Z,101116.25
2019-01-22T08:11:46.873Z,101118.78
2019-01-22T08:15:07.094Z,101118.23
2019-01-22T08:18:13.252Z,101109.52
2019-01-22T08:21:04.262Z,101104.37
2019-01-22T08:24:07.662Z,101106.45
2019-01-22T08:27:12.697Z,101101.31
2019-01-22T08:30:04.222Z,101102.80
2019-01-22T08:32:47.753Z,101091.73
2019-01-22T08:35:51.668Z,101099.21
2019-01-22T08:38:57.578Z,101096.75
2019-01-22T08:42:10.137Z,101094.13
2019-01-22T08:45:17.294Z,101077.77
2019-01-22T08:48:17.946Z,101088.72
2019-01-22T08:51:48.296Z,101081.12
2019-01-22T08:54:46.461Z,101076.48
2019-01-22T08:57:47.836Z,101067.89
2019-01-22T09:00:58.815Z,101067.87
2019-01-22T09:04:11.715Z,101063.32
2019-01-22T09:06:56.829Z,101064.54
2019-01-22T09:09:53.632Z,101057.55
2019-01-22T09:13:02.180Z,101054.53
2019-01-22T09:15:59.381Z,101054.05
2019-01-22T09:19:08.901Z,101056.07
2019-01-22T09:22:33.135Z,101052.58
2019-01-22T09:25:14.675Z,101058.66
2019-01-22T09:28:08.094Z,101048.56
2019-01-22T09:31:01.760Z,101050.32
2019-01-22T09:34:09.560Z,101046.66
2019-01-22T09:36:58.087Z,101040.54
2019-01-22T09:39:25.261Z,101041.68
2019-01-22T09:41:52.924Z,101045.48
2019-01-22T09:44:19.977Z,101047.12
2019-01-22T09:46:48.357Z,101037.66
2019-01-22T09:49:16.017Z,101036.36
2019-01-22T09:51:45.107Z,101036.02
2019-01-22T09:54:12.462Z,101031.15
2019-01-22T09:56:39.536Z,101024.54
2019-01-22T09:59:08.395Z,101028.98
2019-01-22T10:01:36.163Z,101024.56
2019-01-22T10:04:03.867Z,101026.52
2019-01-22T10:06:31.850Z,101021.38
2019-01-22T10:09:00.577Z,101023.28
2019-01-22T10:11:28.042Z,101020.80
2019-01-22T10:13:55.397Z,101018.80
2019-01-22T10:16:23.773Z,101009.78
2019-01-22T10:18:51.645Z,101007.97
2019-01-22T10:21:19.302Z,101005.78
2019-01-22T10:23:47.092Z,101002.06
2019-01-22T10:26:16.262Z,101003.73
2019-01-22T10:28:43.829Z,101006.33
2019-01-22T10:31:10.911Z,100998.95
2019-01-22T10:33:38.528Z,101006.06
2019-01-22T10:36:10.658Z,101003.93
2019-01-22T10:38:38.277Z,101003.41
2019-01-22T10:41:06.739Z,100997.95
2019-01-22T10:43:36.160Z,100986.13
2019-01-22T10:46:03.855Z,100991.50
2019-01-22T10:48:30.895Z,100990.63
2019-01-22T10:50:57.958Z,100981.50
2019-01-22T10:53:25.112Z,100976.95
2019-01-22T10:55:52.163Z,100971.58
2019-01-22T10:58:19.246Z,100967.30
2019-01-22T11:00:46.293Z,100968.70
2019-01-22T11:03:16.750Z,100964.62
2019-01-22T11:05:44.176Z,100967.30
2019-01-22T11:08:12.038Z,100964.48
2019-01-22T11:10:39.389Z,100964.59
2019-01-22T11:13:06.475Z,100959.46
2019-01-22T11:15:33.522Z,100949.58
2019-01-22T11:18:01.268Z,100943.91
2019-01-22T11:20:28.562Z,100930.81
2019-01-22T11:22:56.522Z,100928.54
2019-01-22T11:25:25.846Z,100915.64
2019-01-22T11:27:52.941Z,100912.87
2019-01-22T11:30:22.726Z,100904.78
2019-01-22T11:32:51.114Z,100895.20
2019-01-22T11:35:19.593Z,100896.47
2019-01-22T11:37:48.909Z,100887.53
2019-01-22T11:40:19.131Z,100881.52
2019-01-22T11:42:46.181Z,100883.19
2019-01-22T11:45:13.563Z,100874.30
2019-01-22T11:47:40.608Z,100873.39
2019-01-22T11:50:11.909Z,100868.20
2019-01-22T11:52:39.465Z,100864.60
2019-01-22T11:55:06.538Z,100864.45
2019-01-22T11:57:33.870Z,100860.55
2019-01-22T12:00:00.992Z,100858.22
2019-01-22T12:02:31.933Z,100850.78
2019-01-22T12:04:57.472Z,100852.55
2019-01-22T12:07:24.892Z,100840.27
2019-01-22T12:09:52.188Z,100835.09
2019-01-22T12:12:19.250Z,100831.45
2019-01-22T12:14:46.641Z,100833.13
2019-01-22T12:17:14.548Z,100824.75
2019-01-22T12:19:42.209Z,100821.32
2019-01-22T12:22:11.214Z,100821.01
2019-01-22T12:24:39.364Z,100811.06
2019-01-22T12:27:06.436Z,100806.27
2019-01-22T12:29:35.322Z,100811.80
2019-01-22T12:32:02.390Z,100802.52
2019-01-22T12:34:29.443Z,100801.85
2019-01-22T12:36:58.858Z,100796.59
2019-01-22T12:39:26.018Z,100783.13
2019-01-22T12:41:53.066Z,100784.25
2019-01-22T12:44:20.156Z,100775.94
2019-01-22T12:46:47.203Z,100774.59
2019-01-22T12:49:15.289Z,100768.00
2019-01-22T12:51:42.334Z,100765.55
2019-01-22T12:54:11.744Z,100755.50
2019-01-22T12:56:38.920Z,100763.75
2019-01-22T12:59:06.225Z,100750.45
2019-01-22T13:01:33.294Z,100748.33
2019-01-22T13:04:02.136Z,100734.26
2019-01-22T13:06:29.521Z,100733.60
2019-01-22T13:08:58.414Z,100725.52
2019-01-22T13:11:25.879Z,100727.60
2019-01-22T13:13:55.131Z,100716.00
2019-01-22T13:16:23.254Z,100711.27
2019-01-22T13:18:50.320Z,100709.13
2019-01-22T13:21:18.494Z,100701.91
2019-01-22T13:23:45.638Z,100688.16
2019-01-22T13:26:13.003Z,100696.07
2019-01-22T13:28:41.130Z,100684.84
2019-01-22T13:31:08.193Z,100689.59
2019-01-22T13:33:35.540Z,100680.54
2019-01-22T13:36:04.852Z,100684.86
2019-01-22T13:38:33.314Z,100676.80
2019-01-22T13:41:00.683Z,100676.06
2019-01-22T13:43:28.106Z,100675.01
2019-01-22T13:45:55.517Z,100672.67
2019-01-22T13:48:23.437Z,100666.63
2019-01-22T13:50:50.870Z,100660.60
2019-01-22T13:53:17.914Z,100660.97
2019-01-22T13:55:46.434Z,100659.05
2019-01-22T13:58:13.790Z,100661.80
2019-01-22T14:00:42.270Z,100652.64
2019-01-22T14:03:09.362Z,100652.15
2019-01-22T14:05:36.401Z,100654.88
2019-01-22T14:08:04.103Z,100653.97
2019-01-22T14:10:31.557Z,100651.17
2019-01-22T14:12:59.244Z,100640.19
2019-01-22T14:15:35.448Z,100639.34
2019-01-22T14:18:02.494Z,100635.15
2019-01-22T14:20:29.520Z,100636.51
2019-01-22T14:22:56.614Z,100633.14
2019-01-22T14:25:24.013Z,100623.66
2019-01-22T14:27:51.055Z,100631.03
2019-01-22T14:30:25.423Z,100624.64
2019-01-22T14:32:52.831Z,100625.94
2019-01-22T14:35:19.913Z,100616.42
2019-01-22T14:37:47.087Z,100621.39
2019-01-22T14:40:14.686Z,100612.48
2019-01-22T14:42:41.746Z,100613.10
2019-01-22T14:45:10.936Z,100616.28
2019-01-22T14:47:39.003Z,100614.94
2019-01-22T14:50:14.306Z,100607.48
2019-01-22T14:52:41.969Z,100601.03
2019-01-22T14:55:09.054Z,100596.24
2019-01-22T14:57:36.379Z,100596.70
2019-01-22T15:00:07.319Z,100594.11
2019-01-22T15:02:34.956Z,100594.73
2019-01-22T15:05:05.743Z,100594.33
2019-01-22T15:07:32.798Z,100593.39
2019-01-22T15:10:00.224Z,100588.88
2019-01-22T15:12:30.560Z,100586.95
2019-01-22T15:14:58.026Z,100584.16
2019-01-22T15:17:33.402Z,100572.83
2019-01-22T15:20:00.444Z,100579.67
2019-01-22T15:22:27.473Z,100577.92
2019-01-22T15:24:54.536Z,100573.88
2019-01-22T15:27:22.009Z,100569.88
2019-01-22T15:29:49.934Z,100567.94
2019-01-22T15:32:17.015Z,100573.83
2019-01-22T15:34:44.361Z,100568.09
2019-01-22T15:37:12.015Z,100565.42
2019-01-22T15:39:39.778Z,100569.57
2019-01-22T15:42:07.244Z,100563.16
2019-01-22T15:44:34.291Z,100560.27
2019-01-22T15:47:01.412Z,100555.82
2019-01-22T15:49:28.455Z,100552.70
2019-01-22T15:51:55.520Z,100554.69
2019-01-22T15:54:24.596Z,100552.80
2019-01-22T15:56:52.090Z,100556.63
2019-01-22T15:59:19.136Z,100543.24
2019-01-22T16:01:46.217Z,100550.20
2019-01-22T16:04:13.254Z,100546.92
2019-01-22T16:06:42.315Z,100537.41
2019-01-22T16:09:10.590Z,100543.28
2019-01-22T16:11:37.870Z,100543.52
2019-01-22T16:14:04.908Z,100533.84
2019-01-22T16:16:32.261Z,100533.64
2019-01-22T16:18:59.325Z,100526.62
2019-01-22T16:21:29.008Z,100529.89
2019-01-22T16:23:56.048Z,100517.85
2019-01-22T16:26:23.693Z,100527.10
2019-01-22T16:28:51.453Z,100526.50
2019-01-22T16:31:18.522Z,100531.66
2019-01-22T16:33:45.876Z,100521.14
2019-01-22T16:36:13.427Z,100517.02
2019-01-22T16:38:40.479Z,100518.40
2019-01-22T16:41:08.127Z,100517.18
2019-01-22T16:43:35.580Z,100514.22
2019-01-22T16:46:02.870Z,100511.91
2019-01-22T16:48:30.189Z,100508.36
2019-01-22T16:50:58.345Z,100508.80
2019-01-22T16:53:25.731Z,100502.53
2019-01-22T16:55:52.778Z,100492.30
2019-01-22T16:58:19.861Z,100502.45
2019-01-22T17:00:46.918Z,100500.85
2019-01-22T17:03:14.300Z,100499.61
2019-01-22T17:05:43.152Z,100495.05
2019-01-22T17:08:10.591Z,100495.32
2019-01-22T17:10:37.663Z,100498.09
2019-01-22T17:13:05.494Z,100502.59
2019-01-22T17:15:32.540Z,100501.19
2019-01-22T17:18:00.018Z,100500.69
2019-01-22T17:20:30.027Z,100496.77
2019-01-22T17:23:01.940Z,100492.41
2019-01-22T17:25:28.081Z,100488.54
2019-01-22T17:27:55.458Z,100489.06
2019-01-22T17:30:23.101Z,100503.73
2019-01-22T17:33:22.705Z,100498.54
2019-01-22T17:35:50.637Z,100503.05
2019-01-22T17:38:19.462Z,100498.09
2019-01-22T17:40:48.657Z,100492.75
2019-01-22T17:43:16.194Z,100490.73
2019-01-22T17:45:43.260Z,100495.40
2019-01-22T17:48:10.472Z,100501.34
2019-01-22T17:50:43.705Z,100501.58
2019-01-22T17:53:12.082Z,100500.77
2019-01-22T17:55:39.133Z,100490.25
2019-01-22T17:58:07.225Z,100491.76
2019-01-22T18:00:36.155Z,100490.00
2019-01-22T18:03:04.529Z,100486.08
2019-01-22T18:05:31.607Z,100479.10
2019-01-22T18:07:58.983Z,100484.59
2019-01-22T18:10:26.338Z,100482.14
2019-01-22T18:12:53.395Z,100476.67
2019-01-22T18:15:21.266Z,100481.64
2019-01-22T18:17:50.450Z,100474.91
2019-01-22T18:20:20.251Z,100478.55
2019-01-22T18:22:47.616Z,100476.38
2019-01-22T18:25:15.078Z,100472.67
2019-01-22T18:27:43.336Z,100470.40
2019-01-22T18:30:13.479Z,100463.13
2019-01-22T18:32:40.955Z,100453.87
2019-01-22T18:35:11.305Z,100461.80
2019-01-22T18:37:38.354Z,100462.22
2019-01-22T18:40:07.452Z,100460.44
2019-01-22T18:42:35.865Z,100464.91
2019-01-22T18:45:02.998Z,100453.20
2019-01-22T18:47:31.649Z,100453.69
2019-01-22T18:49:58.811Z,100459.41
2019-01-22T18:52:26.619Z,100451.53
2019-01-22T18:54:54.034Z,100450.78
2019-01-22T18:57:27.385Z,100454.04
2019-01-22T18:59:52.209Z,100449.92
2019-01-22T19:02:20.642Z,100444.14
2019-01-22T19:04:47.685Z,100442.05
2019-01-22T19:07:15.819Z,100442.78
2019-01-22T19:09:42.867Z,100438.66
2019-01-22T19:12:09.907Z,100441.28
2019-01-22T19:14:37.308Z,100436.84
2019-01-22T19:17:04.756Z,100442.44
2019-01-22T19:19:31.788Z,100438.50
2019-01-22T19:21:58.827Z,100436.83
2019-01-22T19:24:25.914Z,100442.34
2019-01-22T19:26:52.928Z,100441.28
2019-01-22T19:29:20.303Z,100438.42
2019-01-22T19:31:47.765Z,100433.56
2019-01-22T19:34:14.809Z,100433.91
2019-01-22T19:36:42.477Z,100426.47
2019-01-22T19:39:09.569Z,100425.34
2019-01-22T19:41:36.623Z,100428.42
2019-01-22T19:44:04.443Z,100418.77
2019-01-22T19:46:31.832Z,100422.45
2019-01-22T19:48:59.092Z,100410.98
2019-01-22T19:51:26.160Z,100417.22
2019-01-22T19:53:53.755Z,100410.27
2019-01-22T19:56:20.799Z,100409.14
2019-01-22T19:58:47.915Z,100410.22
2019-01-22T20:01:15.619Z,100408.25
2019-01-22T20:03:42.681Z,100407.77
2019-01-22T20:06:10.341Z,100407.20
2019-01-22T20:08:37.379Z,100410.41
2019-01-22T20:11:05.958Z,100406.54
2019-01-22T20:13:33.153Z,100403.52
2019-01-22T20:16:01.255Z,100398.32
2019-01-22T20:18:28.358Z,100392.30
2019-01-22T20:20:55.826Z,100391.91
2019-01-22T20:23:24.500Z,100383.00
2019-01-22T20:25:51.853Z,100388.44
2019-01-22T20:28:18.935Z,100387.24
2019-01-22T20:30:50.759Z,100397.05
2019-01-22T20:33:18.134Z,100390.39
2019-01-22T20:35:45.954Z,100392.01
2019-01-22T20:38:13.715Z,100391.07
2019-01-22T20:40:42.669Z,100387.80
2019-01-22T20:43:09.753Z,100390.31
2019-01-22T20:45:37.136Z,100387.53
2019-01-22T20:48:07.125Z,100384.29
2019-01-22T20:50:34.784Z,100383.50
2019-01-22T20:53:02.154Z,100387.77
2019-01-22T20:55:29.253Z,100380.21
2019-01-22T20:57:57.258Z,100389.66
2019-01-22T21:00:24.431Z,100387.27
2019-01-22T21:02:52.488Z,100383.13
2019-01-22T21:05:21.985Z,100382.89
2019-01-22T21:07:49.479Z,100383.99
2019-01-22T21:10:28.011Z,100384.31
2019-01-22T21:12:55.518Z,100390.72
2019-01-22T21:15:22.573Z,100387.53
2019-01-22T21:17:50.729Z,100387.16
2019-01-22T21:20:19.010Z,100388.07
2019-01-22T21:22:46.873Z,100389.22
2019-01-22T21:25:15.669Z,100380.75
2019-01-22T21:27:44.099Z,100390.52
2019-01-22T21:30:26.241Z,100382.02
2019-01-22T21:32:53.278Z,100380.75
2019-01-22T21:35:20.856Z,100385.36
2019-01-22T21:37:48.202Z,100386.34
2019-01-22T21:40:17.630Z,100390.53
2019-01-22T21:42:44.741Z,100386.91
2019-01-22T21:45:13.337Z,100384.52
2019-01-22T21:47:40.432Z,100383.24
2019-01-22T21:50:10.542Z,100382.85
2019-01-22T21:52:37.861Z,100371.86
2019-01-22T21:55:08.287Z,100377.09
2019-01-22T21:57:35.356Z,100373.03
2019-01-22T22:00:06.389Z,100369.63
2019-01-22T22:02:33.742Z,100366.73
2019-01-22T22:05:01.827Z,100376.56
2019-01-22T22:07:30.083Z,100369.88
2019-01-22T22:09:58.522Z,100375.40
2019-01-22T22:12:25.568Z,100374.39
2019-01-22T22:14:53.747Z,100375.81
2019-01-22T22:17:21.287Z,100368.27
2019-01-22T22:19:48.375Z,100368.41
2019-01-22T22:22:15.451Z,100358.81
2019-01-22T22:24:42.663Z,100361.47
2019-01-22T22:27:09.709Z,100357.22
2019-01-22T22:29:37.115Z,100358.48
2019-01-22T22:32:04.966Z,100363.13
2019-01-22T22:34:34.776Z,100357.06
2019-01-22T22:37:02.142Z,100356.81
2019-01-22T22:39:29.211Z,100356.81
2019-01-22T22:41:56.301Z,100356.70
2019-01-22T22:44:23.370Z,100355.15
2019-01-22T22:46:56.456Z,100355.94
2019-01-22T22:49:23.949Z,100350.31
2019-01-22T22:51:51.011Z,100355.22
2019-01-22T22:54:18.640Z,100360.01
2019-01-22T22:56:45.733Z,100354.58
2019-01-22T22:59:13.124Z,100356.60
2019-01-22T23:01:41.303Z,100360.69
2019-01-22T23:04:08.496Z,100357.81
2019-01-22T23:06:36.451Z,100363.33
2019-01-22T23:09:09.773Z,100361.45
2019-01-22T23:11:37.222Z,100365.98
2019-01-22T23:14:04.295Z,100365.51
2019-01-22T23:16:31.714Z,100368.86
2019-01-22T23:18:58.774Z,100371.39
2019-01-22T23:21:26.865Z,100364.47
2019-01-22T23:23:53.958Z,100366.33
2019-01-22T23:26:21.098Z,100366.13
2019-01-22T23:28:48.543Z,100361.95
2019-01-22T23:31:15.602Z,100360.15
2019-01-22T23:33:42.672Z,100355.00
2019-01-22T23:36:09.918Z,100354.55
2019-01-22T23:38:38.295Z,100353.81
2019-01-22T23:41:05.371Z,100348.20
2019-01-22T23:43:32.417Z,100357.50
2019-01-22T23:45:59.465Z,100347.09
2019-01-22T23:48:26.617Z,100346.08
2019-01-22T23:50:53.646Z,100347.00
2019-01-22T23:53:20.716Z,100345.34
2019-01-22T23:55:50.350Z,100341.52
2019-01-22T23:58:17.405Z,100344.59
